sensor_id;sensor_type;location;lat;lon;timestamp;temperature;humidity
14016;DHT22;7083;48.854;9.158;2023-05-18T03:19:18;12.60;84.20
14016;DHT22;7083;48.854;9.158;2023-05-18T03:21:45;3.00;99.90
14016;DHT22;7083;48.854;9.158;2023-05-18T03:24:13;2.90;99.90
14016;DHT22;7083;48.854;9.158;2023-05-18T03:26:40;2.90;99.90
14016;DHT22;7083;48.854;9.158;2023-05-18T03:29:09;2.80;99.90
14016;DHT22;7083;48.854;9.158;2023-05-18T03:31:37;2.80;99.90
14016;DHT22;7083;48.854;9.158;2023-05-18T03:34:04;2.80;99.90
14016;DHT22;7083;48.854;9.158;2023-05-18T03:36:31;2.80;99.90
14016;DHT22;7083;48.854;9.158;2023-05-18T03:38:57;2.80;99.90
14016;DHT22;7083;48.854;9.158;2023-05-18T03:41:24;2.80;99.90
14016;DHT22;7083;48.854;9.158;2023-05-18T03:43:51;2.80;99.90
14016;DHT22;7083;48.854;9.158;2023-05-18T03:46:19;2.80;99.90
14016;DHT22;7083;48.854;9.158;2023-05-18T03:48:45;2.80;99.90
14016;DHT22;7083;48.854;9.158;2023-05-18T03:51:12;2.80;99.90
14016;DHT22;7083;48.854;9.158;2023-05-18T03:53:39;2.80;99.90
14016;DHT22;7083;48.854;9.158;2023-05-18T03:56:06;2.80;99.90
14016;DHT22;7083;48.854;9.158;2023-05-18T03:58:33;2.80;99.90
14016;DHT22;7083;48.854;9.158;2023-05-18T04:01:01;2.80;99.90
14016;DHT22;7083;48.854;9.158;2023-05-18T04:03:29;2.80;99.90
14016;DHT22;7083;48.854;9.158;2023-05-18T04:05:55;2.80;99.90
14016;DHT22;7083;48.854;9.158;2023-05-18T04:08:22;2.90;99.90
14016;DHT22;7083;48.854;9.158;2023-05-18T04:10:50;2.90;99.90
14016;DHT22;7083;48.854;9.158;2023-05-18T04:13:17;3.00;99.90
14016;DHT22;7083;48.854;9.158;2023-05-18T04:15:43;3.00;99.90
14016;DHT22;7083;48.854;9.158;2023-05-18T04:18:12;3.10;99.90
14016;DHT22;7083;48.854;9.158;2023-05-18T04:20:40;3.10;99.90
14016;DHT22;7083;48.854;9.158;2023-05-18T04:23:10;3.10;99.90
14016;DHT22;7083;48.854;9.158;2023-05-18T04:25:37;3.20;99.90
14016;DHT22;7083;48.854;9.158;2023-05-18T04:28:05;3.20;99.90
14016;DHT22;7083;48.854;9.158;2023-05-18T04:30:32;3.20;99.90
14016;DHT22;7083;48.854;9.158;2023-05-18T04:32:59;3.30;99.90
14016;DHT22;7083;48.854;9.158;2023-05-18T04:35:28;3.30;99.90
14016;DHT22;7083;48.854;9.158;2023-05-18T04:37:57;3.40;99.90
14016;DHT22;7083;48.854;9.158;2023-05-18T04:40:24;3.40;99.90
14016;DHT22;7083;48.854;9.158;2023-05-18T04:42:50;3.50;99.90
14016;DHT22;7083;48.854;9.158;2023-05-18T04:45:17;3.50;99.90
14016;DHT22;7083;48.854;9.158;2023-05-18T04:47:47;3.60;99.90
14016;DHT22;7083;48.854;9.158;2023-05-18T04:50:18;3.70;99.90
14016;DHT22;7083;48.854;9.158;2023-05-18T04:52:46;3.80;99.90
14016;DHT22;7083;48.854;9.158;2023-05-18T04:55:15;3.90;99.90
14016;DHT22;7083;48.854;9.158;2023-05-18T04:57:47;3.90;99.90
14016;DHT22;7083;48.854;9.158;2023-05-18T05:00:15;4.00;99.90
14016;DHT22;7083;48.854;9.158;2023-05-18T05:02:41;4.10;99.90
14016;DHT22;7083;48.854;9.158;2023-05-18T05:05:08;4.20;99.90
14016;DHT22;7083;48.854;9.158;2023-05-18T05:07:35;4.30;99.90
14016;DHT22;7083;48.854;9.158;2023-05-18T05:10:02;4.40;99.90
14016;DHT22;7083;48.854;9.158;2023-05-18T05:12:30;4.50;99.90
14016;DHT22;7083;48.854;9.158;2023-05-18T05:14:57;4.60;99.90
14016;DHT22;7083;48.854;9.158;2023-05-18T05:17:23;4.70;99.90
14016;DHT22;7083;48.854;9.158;2023-05-18T05:19:50;4.80;99.90
14016;DHT22;7083;48.854;9.158;2023-05-18T05:22:16;4.90;99.90
14016;DHT22;7083;48.854;9.158;2023-05-18T05:24:44;5.00;99.90
14016;DHT22;7083;48.854;9.158;2023-05-18T05:27:11;5.10;99.90
14016;DHT22;7083;48.854;9.158;2023-05-18T05:29:38;5.20;99.90
14016;DHT22;7083;48.854;9.158;2023-05-18T05:32:06;5.30;99.90
14016;DHT22;7083;48.854;9.158;2023-05-18T05:34:33;5.40;99.90
14016;DHT22;7083;48.854;9.158;2023-05-18T05:36:59;5.40;99.90
14016;DHT22;7083;48.854;9.158;2023-05-18T05:39:26;5.60;99.90
14016;DHT22;7083;48.854;9.158;2023-05-18T05:41:53;5.70;99.90
14016;DHT22;7083;48.854;9.158;2023-05-18T05:44:19;5.80;99.90
14016;DHT22;7083;48.854;9.158;2023-05-18T05:46:47;5.80;99.90
14016;DHT22;7083;48.854;9.158;2023-05-18T05:49:14;5.90;99.90
14016;DHT22;7083;48.854;9.158;2023-05-18T05:51:41;6.00;99.90
14016;DHT22;7083;48.854;9.158;2023-05-18T05:54:07;6.10;99.90
14016;DHT22;7083;48.854;9.158;2023-05-18T05:56:34;6.20;99.90
14016;DHT22;7083;48.854;9.158;2023-05-18T05:59:01;6.30;99.90
14016;DHT22;7083;48.854;9.158;2023-05-18T06:01:27;6.40;99.90
14016;DHT22;7083;48.854;9.158;2023-05-18T06:03:55;6.50;99.90
14016;DHT22;7083;48.854;9.158;2023-05-18T06:06:22;6.60;99.90
14016;DHT22;7083;48.854;9.158;2023-05-18T06:08:48;6.70;99.90
14016;DHT22;7083;48.854;9.158;2023-05-18T06:11:15;6.80;99.90
14016;DHT22;7083;48.854;9.158;2023-05-18T06:13:42;6.90;99.90
14016;DHT22;7083;48.854;9.158;2023-05-18T06:16:08;7.00;99.90
14016;DHT22;7083;48.854;9.158;2023-05-18T06:18:35;7.10;99.90
14016;DHT22;7083;48.854;9.158;2023-05-18T06:21:03;7.10;99.90
14016;DHT22;7083;48.854;9.158;2023-05-18T06:23:30;7.20;99.90
14016;DHT22;7083;48.854;9.158;2023-05-18T06:25:56;7.30;99.90
14016;DHT22;7083;48.854;9.158;2023-05-18T06:28:23;7.30;99.90
14016;DHT22;7083;48.854;9.158;2023-05-18T06:30:50;7.50;99.90
14016;DHT22;7083;48.854;9.158;2023-05-18T06:33:16;7.60;99.90
14016;DHT22;7083;48.854;9.158;2023-05-18T06:35:45;7.70;99.90
14016;DHT22;7083;48.854;9.158;2023-05-18T06:38:13;7.80;99.90
14016;DHT22;7083;48.854;9.158;2023-05-18T06:40:40;7.90;99.90
14016;DHT22;7083;48.854;9.158;2023-05-18T06:43:07;8.00;99.90
14016;DHT22;7083;48.854;9.158;2023-05-18T06:45:33;8.10;99.90
14016;DHT22;7083;48.854;9.158;2023-05-18T06:48:00;8.20;99.90
14016;DHT22;7083;48.854;9.158;2023-05-18T06:50:27;8.30;99.90
14016;DHT22;7083;48.854;9.158;2023-05-18T06:52:54;8.40;99.90
14016;DHT22;7083;48.854;9.158;2023-05-18T06:55:21;8.50;99.90
14016;DHT22;7083;48.854;9.158;2023-05-18T06:57:48;8.60;99.90
14016;DHT22;7083;48.854;9.158;2023-05-18T07:00:17;8.70;99.90
14016;DHT22;7083;48.854;9.158;2023-05-18T07:02:43;8.80;99.90
14016;DHT22;7083;48.854;9.158;2023-05-18T07:05:11;8.90;99.90
14016;DHT22;7083;48.854;9.158;2023-05-18T07:07:39;9.00;99.90
14016;DHT22;7083;48.854;9.158;2023-05-18T07:10:06;9.10;99.90
14016;DHT22;7083;48.854;9.158;2023-05-18T07:12:35;9.20;99.90
14016;DHT22;7083;48.854;9.158;2023-05-18T07:15:01;9.30;99.90
14016;DHT22;7083;48.854;9.158;2023-05-18T07:17:28;9.40;99.90
14016;DHT22;7083;48.854;9.158;2023-05-18T07:19:55;9.50;99.90
14016;DHT22;7083;48.854;9.158;2023-05-18T07:22:21;9.60;99.90
14016;DHT22;7083;48.854;9.158;2023-05-18T07:24:48;9.80;99.90
14016;DHT22;7083;48.854;9.158;2023-05-18T07:27:15;9.80;99.90
14016;DHT22;7083;48.854;9.158;2023-05-18T07:29:43;9.90;99.90
14016;DHT22;7083;48.854;9.158;2023-05-18T07:32:09;10.00;99.90
14016;DHT22;7083;48.854;9.158;2023-05-18T07:34:36;10.10;99.90
14016;DHT22;7083;48.854;9.158;2023-05-18T07:37:03;10.20;99.90
14016;DHT22;7083;48.854;9.158;2023-05-18T07:39:30;10.30;99.90
14016;DHT22;7083;48.854;9.158;2023-05-18T07:41:57;10.40;99.90
14016;DHT22;7083;48.854;9.158;2023-05-18T07:44:24;10.50;99.90
14016;DHT22;7083;48.854;9.158;2023-05-18T07:46:52;10.70;99.90
14016;DHT22;7083;48.854;9.158;2023-05-18T07:49:19;10.80;99.90
14016;DHT22;7083;48.854;9.158;2023-05-18T07:51:47;10.90;99.90
14016;DHT22;7083;48.854;9.158;2023-05-18T07:54:14;11.00;99.90
14016;DHT22;7083;48.854;9.158;2023-05-18T07:56:41;11.20;97.90
14016;DHT22;7083;48.854;9.158;2023-05-18T07:59:09;11.30;98.00
14016;DHT22;7083;48.854;9.158;2023-05-18T08:01:36;11.50;96.60
14016;DHT22;7083;48.854;9.158;2023-05-18T08:04:04;11.60;96.40
14016;DHT22;7083;48.854;9.158;2023-05-18T08:06:31;11.70;95.60
14016;DHT22;7083;48.854;9.158;2023-05-18T08:08:57;11.90;95.90
14016;DHT22;7083;48.854;9.158;2023-05-18T08:11:24;12.00;94.50
14016;DHT22;7083;48.854;9.158;2023-05-18T08:13:51;12.20;94.30
14016;DHT22;7083;48.854;9.158;2023-05-18T08:16:17;12.30;93.40
14016;DHT22;7083;48.854;9.158;2023-05-18T08:18:44;12.40;92.80
14016;DHT22;7083;48.854;9.158;2023-05-18T08:21:12;12.50;93.30
14016;DHT22;7083;48.854;9.158;2023-05-18T08:23:39;12.70;93.10
14016;DHT22;7083;48.854;9.158;2023-05-18T08:26:05;12.80;92.90
14016;DHT22;7083;48.854;9.158;2023-05-18T08:28:33;13.00;93.00
14016;DHT22;7083;48.854;9.158;2023-05-18T08:31:00;13.10;92.60
14016;DHT22;7083;48.854;9.158;2023-05-18T08:33:26;13.20;91.60
14016;DHT22;7083;48.854;9.158;2023-05-18T08:35:53;13.30;92.10
14016;DHT22;7083;48.854;9.158;2023-05-18T08:38:22;13.40;92.80
14016;DHT22;7083;48.854;9.158;2023-05-18T08:40:56;13.50;91.90
14016;DHT22;7083;48.854;9.158;2023-05-18T08:43:24;13.60;90.10
14016;DHT22;7083;48.854;9.158;2023-05-18T08:46:03;13.60;89.00
14016;DHT22;7083;48.854;9.158;2023-05-18T08:48:31;13.60;90.90
14016;DHT22;7083;48.854;9.158;2023-05-18T08:51:00;13.70;90.30
14016;DHT22;7083;48.854;9.158;2023-05-18T08:53:31;13.70;89.20
14016;DHT22;7083;48.854;9.158;2023-05-18T08:55:59;13.70;90.20
14016;DHT22;7083;48.854;9.158;2023-05-18T08:58:29;13.80;89.90
14016;DHT22;7083;48.854;9.158;2023-05-18T09:00:57;13.80;89.10
14016;DHT22;7083;48.854;9.158;2023-05-18T09:03:24;13.90;88.60
14016;DHT22;7083;48.854;9.158;2023-05-18T09:05:51;14.00;88.50
14016;DHT22;7083;48.854;9.158;2023-05-18T09:08:18;14.00;87.50
14016;DHT22;7083;48.854;9.158;2023-05-18T09:10:47;14.10;85.00
14016;DHT22;7083;48.854;9.158;2023-05-18T09:13:14;14.00;86.90
14016;DHT22;7083;48.854;9.158;2023-05-18T09:15:41;14.00;85.30
14016;DHT22;7083;48.854;9.158;2023-05-18T09:18:08;14.00;85.30
14016;DHT22;7083;48.854;9.158;2023-05-18T09:20:35;14.00;85.80
14016;DHT22;7083;48.854;9.158;2023-05-18T09:23:01;14.30;87.70
14016;DHT22;7083;48.854;9.158;2023-05-18T09:25:31;14.60;85.80
14016;DHT22;7083;48.854;9.158;2023-05-18T09:28:01;14.70;82.00
14016;DHT22;7083;48.854;9.158;2023-05-18T09:30:29;14.70;81.40
14016;DHT22;7083;48.854;9.158;2023-05-18T09:32:56;14.70;82.80
14016;DHT22;7083;48.854;9.158;2023-05-18T09:35:23;14.80;85.70
14016;DHT22;7083;48.854;9.158;2023-05-18T09:37:50;15.00;86.50
14016;DHT22;7083;48.854;9.158;2023-05-18T09:40:17;15.20;79.20
14016;DHT22;7083;48.854;9.158;2023-05-18T09:42:45;15.30;82.00
14016;DHT22;7083;48.854;9.158;2023-05-18T09:45:19;15.40;80.40
14016;DHT22;7083;48.854;9.158;2023-05-18T09:47:49;15.40;80.60
14016;DHT22;7083;48.854;9.158;2023-05-18T09:50:17;15.50;80.00
14016;DHT22;7083;48.854;9.158;2023-05-18T09:52:44;15.50;76.80
14016;DHT22;7083;48.854;9.158;2023-05-18T09:55:13;15.60;79.80
14016;DHT22;7083;48.854;9.158;2023-05-18T09:57:42;15.70;80.00
14016;DHT22;7083;48.854;9.158;2023-05-18T10:00:11;16.00;78.50
14016;DHT22;7083;48.854;9.158;2023-05-18T10:02:40;16.20;74.10
14016;DHT22;7083;48.854;9.158;2023-05-18T10:05:18;16.20;76.10
14016;DHT22;7083;48.854;9.158;2023-05-18T10:07:44;16.20;77.20
14016;DHT22;7083;48.854;9.158;2023-05-18T10:10:16;16.30;76.20
14016;DHT22;7083;48.854;9.158;2023-05-18T10:12:43;16.40;73.70
14016;DHT22;7083;48.854;9.158;2023-05-18T10:15:13;16.40;73.50
14016;DHT22;7083;48.854;9.158;2023-05-18T10:17:42;16.40;75.90
14016;DHT22;7083;48.854;9.158;2023-05-18T13:27:43;16.70;78.20
14016;DHT22;7083;48.854;9.158;2023-05-18T13:30:13;27.20;50.40
14016;DHT22;7083;48.854;9.158;2023-05-18T13:32:39;26.40;49.40
14016;DHT22;7083;48.854;9.158;2023-05-18T13:35:08;26.90;51.80
14016;DHT22;7083;48.854;9.158;2023-05-18T13:37:36;27.50;50.40
14016;DHT22;7083;48.854;9.158;2023-05-18T13:40:04;28.60;50.30
14016;DHT22;7083;48.854;9.158;2023-05-18T13:42:31;28.80;45.90
14016;DHT22;7083;48.854;9.158;2023-05-18T13:44:58;28.10;49.40
14016;DHT22;7083;48.854;9.158;2023-05-18T13:47:24;27.80;50.00
14016;DHT22;7083;48.854;9.158;2023-05-18T13:49:51;27.60;51.40
14016;DHT22;7083;48.854;9.158;2023-05-18T13:52:19;27.20;53.70
14016;DHT22;7083;48.854;9.158;2023-05-18T13:54:46;26.60;51.30
14016;DHT22;7083;48.854;9.158;2023-05-18T13:57:13;26.90;48.90
14016;DHT22;7083;48.854;9.158;2023-05-18T13:59:40;27.10;51.30
14016;DHT22;7083;48.854;9.158;2023-05-18T14:02:06;27.70;48.80
14016;DHT22;7083;48.854;9.158;2023-05-18T14:04:33;28.60;49.00
14016;DHT22;7083;48.854;9.158;2023-05-18T14:06:59;29.60;46.20
14016;DHT22;7083;48.854;9.158;2023-05-18T14:09:28;30.00;44.90
14016;DHT22;7083;48.854;9.158;2023-05-18T14:38:56;31.00;44.70
14016;DHT22;7083;48.854;9.158;2023-05-18T14:41:23;29.90;49.30
14016;DHT22;7083;48.854;9.158;2023-05-18T14:43:50;29.50;45.20
14016;DHT22;7083;48.854;9.158;2023-05-18T14:46:18;28.70;47.80
14016;DHT22;7083;48.854;9.158;2023-05-18T14:53:40;29.00;48.80
14016;DHT22;7083;48.854;9.158;2023-05-18T14:56:07;29.70;46.10
14016;DHT22;7083;48.854;9.158;2023-05-18T14:58:34;27.80;46.20
14016;DHT22;7083;48.854;9.158;2023-05-18T15:01:02;28.10;46.70
14016;DHT22;7083;48.854;9.158;2023-05-18T15:03:29;28.20;53.00
14016;DHT22;7083;48.854;9.158;2023-05-18T15:05:56;27.30;48.20
14016;DHT22;7083;48.854;9.158;2023-05-18T15:08:22;26.00;49.40
14016;DHT22;7083;48.854;9.158;2023-05-18T15:10:49;25.40;52.00
14016;DHT22;7083;48.854;9.158;2023-05-18T15:13:16;26.50;55.40
14016;DHT22;7083;48.854;9.158;2023-05-18T15:15:42;28.30;49.70
14016;DHT22;7083;48.854;9.158;2023-05-18T15:18:10;30.00;48.50
14016;DHT22;7083;48.854;9.158;2023-05-18T15:28:00;31.30;44.10
14016;DHT22;7083;48.854;9.158;2023-05-18T15:30:27;30.60;42.90
14016;DHT22;7083;48.854;9.158;2023-05-18T15:32:54;29.10;44.70
14016;DHT22;7083;48.854;9.158;2023-05-18T15:35:23;27.70;46.00
14016;DHT22;7083;48.854;9.158;2023-05-18T15:37:49;28.00;46.10
14016;DHT22;7083;48.854;9.158;2023-05-18T15:40:16;29.20;48.50
14016;DHT22;7083;48.854;9.158;2023-05-18T15:42:43;30.40;44.20
14016;DHT22;7083;48.854;9.158;2023-05-18T15:45:10;32.00;41.50
14016;DHT22;7083;48.854;9.158;2023-05-18T15:47:37;32.30;38.70
14016;DHT22;7083;48.854;9.158;2023-05-18T15:50:05;31.20;43.10
14016;DHT22;7083;48.854;9.158;2023-05-18T15:52:33;29.90;45.60
14016;DHT22;7083;48.854;9.158;2023-05-18T15:55:00;28.40;45.60
14016;DHT22;7083;48.854;9.158;2023-05-18T15:57:26;26.40;44.10
14016;DHT22;7083;48.854;9.158;2023-05-18T15:59:53;25.10;50.10
14016;DHT22;7083;48.854;9.158;2023-05-18T16:02:20;24.30;48.20
14016;DHT22;7083;48.854;9.158;2023-05-18T16:04:46;24.40;52.90
14016;DHT22;7083;48.854;9.158;2023-05-18T16:07:14;24.90;49.80
14016;DHT22;7083;48.854;9.158;2023-05-18T16:09:42;24.60;52.40
14016;DHT22;7083;48.854;9.158;2023-05-18T16:12:08;24.30;49.40
14016;DHT22;7083;48.854;9.158;2023-05-18T16:14:35;23.80;50.40
14016;DHT22;7083;48.854;9.158;2023-05-18T16:17:02;23.20;51.40
14016;DHT22;7083;48.854;9.158;2023-05-18T16:19:28;22.60;52.90
14016;DHT22;7083;48.854;9.158;2023-05-18T16:21:57;21.90;56.20
14016;DHT22;7083;48.854;9.158;2023-05-18T16:24:24;21.20;57.70
14016;DHT22;7083;48.854;9.158;2023-05-18T16:26:52;20.80;55.70
14016;DHT22;7083;48.854;9.158;2023-05-18T16:29:18;20.20;57.30
14016;DHT22;7083;48.854;9.158;2023-05-18T16:31:45;19.70;59.00
14016;DHT22;7083;48.854;9.158;2023-05-18T16:34:11;19.30;57.60
14016;DHT22;7083;48.854;9.158;2023-05-18T16:36:38;19.00;58.70
14016;DHT22;7083;48.854;9.158;2023-05-18T16:39:05;18.80;59.10
14016;DHT22;7083;48.854;9.158;2023-05-18T16:41:32;18.70;59.20
14016;DHT22;7083;48.854;9.158;2023-05-18T18:15:00;18.50;61.30
14016;DHT22;7083;48.854;9.158;2023-05-18T18:17:26;16.10;64.50
14016;DHT22;7083;48.854;9.158;2023-05-18T18:19:53;15.90;65.40
14016;DHT22;7083;48.854;9.158;2023-05-18T18:22:20;15.80;64.00
14016;DHT22;7083;48.854;9.158;2023-05-18T18:24:47;15.80;65.60
14016;DHT22;7083;48.854;9.158;2023-05-18T18:27:14;15.80;66.40
14016;DHT22;7083;48.854;9.158;2023-05-18T18:29:43;15.70;66.00
14016;DHT22;7083;48.854;9.158;2023-05-18T18:32:10;15.70;64.70
14016;DHT22;7083;48.854;9.158;2023-05-18T18:34:37;15.60;65.10
14016;DHT22;7083;48.854;9.158;2023-05-18T18:37:03;15.60;67.10
14016;DHT22;7083;48.854;9.158;2023-05-18T18:39:30;15.50;67.40
14016;DHT22;7083;48.854;9.158;2023-05-18T18:41:57;15.40;66.90
14016;DHT22;7083;48.854;9.158;2023-05-18T18:44:25;15.30;67.20
14016;DHT22;7083;48.854;9.158;2023-05-18T18:46:51;15.20;67.40
14016;DHT22;7083;48.854;9.158;2023-05-18T18:49:18;15.00;66.50
14016;DHT22;7083;48.854;9.158;2023-05-18T18:51:45;14.90;68.30
14016;DHT22;7083;48.854;9.158;2023-05-18T18:54:12;14.80;67.30
14016;DHT22;7083;48.854;9.158;2023-05-18T18:56:39;14.60;67.80
14016;DHT22;7083;48.854;9.158;2023-05-18T18:59:08;14.50;67.30
14016;DHT22;7083;48.854;9.158;2023-05-18T19:01:36;14.50;69.60
14016;DHT22;7083;48.854;9.158;2023-05-18T19:04:02;14.40;70.20
14016;DHT22;7083;48.854;9.158;2023-05-18T19:06:29;14.30;69.80
14016;DHT22;7083;48.854;9.158;2023-05-18T19:08:56;14.40;70.00
14016;DHT22;7083;48.854;9.158;2023-05-18T19:11:23;14.40;69.60
14016;DHT22;7083;48.854;9.158;2023-05-18T19:13:49;14.40;69.00
14016;DHT22;7083;48.854;9.158;2023-05-18T19:16:16;14.50;68.40
14016;DHT22;7083;48.854;9.158;2023-05-18T19:18:44;14.40;69.60
14016;DHT22;7083;48.854;9.158;2023-05-18T19:21:12;14.40;70.00
14016;DHT22;7083;48.854;9.158;2023-05-18T19:23:39;14.40;69.60
14016;DHT22;7083;48.854;9.158;2023-05-18T19:26:05;14.40;71.10
14016;DHT22;7083;48.854;9.158;2023-05-18T19:28:33;14.30;71.30
14016;DHT22;7083;48.854;9.158;2023-05-18T19:30:59;14.40;72.00
14016;DHT22;7083;48.854;9.158;2023-05-18T19:33:26;14.30;71.90
14016;DHT22;7083;48.854;9.158;2023-05-18T19:35:54;14.30;72.70
14016;DHT22;7083;48.854;9.158;2023-05-18T19:38:21;14.30;73.50
14016;DHT22;7083;48.854;9.158;2023-05-18T19:40:48;14.30;73.30
14016;DHT22;7083;48.854;9.158;2023-05-18T19:43:14;14.20;73.50
14016;DHT22;7083;48.854;9.158;2023-05-18T19:45:41;14.10;72.80
14016;DHT22;7083;48.854;9.158;2023-05-18T19:48:08;14.10;73.60
14016;DHT22;7083;48.854;9.158;2023-05-18T19:50:34;13.90;73.30
14016;DHT22;7083;48.854;9.158;2023-05-18T19:53:02;13.80;73.60
14016;DHT22;7083;48.854;9.158;2023-05-18T19:55:29;13.60;74.00
14016;DHT22;7083;48.854;9.158;2023-05-18T19:57:55;13.40;75.80
14016;DHT22;7083;48.854;9.158;2023-05-18T20:00:22;13.30;75.30
14016;DHT22;7083;48.854;9.158;2023-05-18T20:02:49;13.10;76.60
14016;DHT22;7083;48.854;9.158;2023-05-18T20:17:34;12.90;77.50
14016;DHT22;7083;48.854;9.158;2023-05-18T20:20:01;12.10;82.30
14016;DHT22;7083;48.854;9.158;2023-05-18T20:22:28;11.90;82.30
14016;DHT22;7083;48.854;9.158;2023-05-18T20:24:55;11.70;82.60
14016;DHT22;7083;48.854;9.158;2023-05-18T20:27:26;11.60;85.30
14016;DHT22;7083;48.854;9.158;2023-05-18T20:29:53;11.50;85.70
14016;DHT22;7083;48.854;9.158;2023-05-18T20:32:20;11.30;85.60
14016;DHT22;7083;48.854;9.158;2023-05-18T20:34:47;11.20;86.00
14016;DHT22;7083;48.854;9.158;2023-05-18T20:37:14;11.10;88.10
14016;DHT22;7083;48.854;9.158;2023-05-18T20:39:40;11.00;89.00
14016;DHT22;7083;48.854;9.158;2023-05-18T20:42:15;10.90;88.60
14016;DHT22;7083;48.854;9.158;2023-05-18T20:44:43;10.70;89.00
14016;DHT22;7083;48.854;9.158;2023-05-18T20:47:09;10.60;89.50
14016;DHT22;7083;48.854;9.158;2023-05-18T20:49:36;10.50;90.30
14016;DHT22;7083;48.854;9.158;2023-05-18T20:52:03;10.30;90.50
14016;DHT22;7083;48.854;9.158;2023-05-18T20:54:30;10.20;90.80
14016;DHT22;7083;48.854;9.158;2023-05-18T20:56:57;10.10;91.10
14016;DHT22;7083;48.854;9.158;2023-05-18T20:59:24;10.00;91.40
14016;DHT22;7083;48.854;9.158;2023-05-18T21:01:53;9.90;92.00
14016;DHT22;7083;48.854;9.158;2023-05-18T21:04:20;9.80;92.40
14016;DHT22;7083;48.854;9.158;2023-05-18T21:06:47;9.70;93.20
14016;DHT22;7083;48.854;9.158;2023-05-18T21:09:14;9.60;93.70
14016;DHT22;7083;48.854;9.158;2023-05-18T21:11:41;9.60;93.90
14016;DHT22;7083;48.854;9.158;2023-05-18T21:14:07;9.50;93.90
14016;DHT22;7083;48.854;9.158;2023-05-18T21:16:34;9.40;94.10
14016;DHT22;7083;48.854;9.158;2023-05-18T21:19:02;9.30;94.10
14016;DHT22;7083;48.854;9.158;2023-05-18T21:21:29;9.20;94.30
14016;DHT22;7083;48.854;9.158;2023-05-18T21:23:56;9.20;94.10
14016;DHT22;7083;48.854;9.158;2023-05-18T21:26:22;9.10;94.40
14016;DHT22;7083;48.854;9.158;2023-05-18T21:28:49;9.10;94.80
14016;DHT22;7083;48.854;9.158;2023-05-18T21:31:16;9.10;95.20
14016;DHT22;7083;48.854;9.158;2023-05-18T21:33:42;9.10;95.80
14016;DHT22;7083;48.854;9.158;2023-05-18T21:36:13;9.20;96.50
14016;DHT22;7083;48.854;9.158;2023-05-18T21:38:40;9.20;97.30
14016;DHT22;7083;48.854;9.158;2023-05-18T21:41:07;9.30;97.80
14016;DHT22;7083;48.854;9.158;2023-05-18T21:43:33;9.40;97.90
14016;DHT22;7083;48.854;9.158;2023-05-18T21:46:00;9.50;98.30
14016;DHT22;7083;48.854;9.158;2023-05-18T21:48:26;9.60;98.00
14016;DHT22;7083;48.854;9.158;2023-05-18T21:50:53;9.70;98.60
14016;DHT22;7083;48.854;9.158;2023-05-18T21:53:21;9.70;98.70
14016;DHT22;7083;48.854;9.158;2023-05-18T21:55:48;9.80;98.70
14016;DHT22;7083;48.854;9.158;2023-05-18T21:58:14;9.80;99.70
14016;DHT22;7083;48.854;9.158;2023-05-18T22:00:41;9.90;99.90
14016;DHT22;7083;48.854;9.158;2023-05-18T22:03:08;9.90;99.90
14016;DHT22;7083;48.854;9.158;2023-05-18T22:05:34;10.00;99.90
14016;DHT22;7083;48.854;9.158;2023-05-18T22:08:02;10.00;99.90
14016;DHT22;7083;48.854;9.158;2023-05-18T22:10:30;10.00;99.90
14016;DHT22;7083;48.854;9.158;2023-05-18T22:12:57;10.10;99.90
14016;DHT22;7083;48.854;9.158;2023-05-18T22:15:25;10.10;99.90
14016;DHT22;7083;48.854;9.158;2023-05-18T22:17:51;10.20;99.90
14016;DHT22;7083;48.854;9.158;2023-05-18T22:20:21;10.20;99.90
14016;DHT22;7083;48.854;9.158;2023-05-18T22:22:48;10.20;99.90
14016;DHT22;7083;48.854;9.158;2023-05-18T22:25:15;10.30;99.90
14016;DHT22;7083;48.854;9.158;2023-05-18T22:27:44;10.30;99.90
14016;DHT22;7083;48.854;9.158;2023-05-18T22:30:11;10.30;99.90
14016;DHT22;7083;48.854;9.158;2023-05-18T22:32:39;10.30;99.90
14016;DHT22;7083;48.854;9.158;2023-05-18T22:35:08;10.40;99.90
14016;DHT22;7083;48.854;9.158;2023-05-18T22:37:35;10.50;99.20
14016;DHT22;7083;48.854;9.158;2023-05-18T22:40:02;10.50;98.90
14016;DHT22;7083;48.854;9.158;2023-05-18T22:42:30;10.60;97.70
14016;DHT22;7083;48.854;9.158;2023-05-18T22:44:58;10.60;96.40
14016;DHT22;7083;48.854;9.158;2023-05-18T22:47:25;10.70;96.10
14016;DHT22;7083;48.854;9.158;2023-05-18T22:49:52;10.80;96.30
14016;DHT22;7083;48.854;9.158;2023-05-18T22:52:22;10.80;96.00
14016;DHT22;7083;48.854;9.158;2023-05-18T22:54:49;10.80;95.60
14016;DHT22;7083;48.854;9.158;2023-05-18T22:57:15;10.90;95.50
14016;DHT22;7083;48.854;9.158;2023-05-18T22:59:42;10.90;94.80
14016;DHT22;7083;48.854;9.158;2023-05-18T23:02:10;11.00;94.70
14016;DHT22;7083;48.854;9.158;2023-05-18T23:04:37;11.00;94.30
14016;DHT22;7083;48.854;9.158;2023-05-18T23:07:04;11.00;94.60
14016;DHT22;7083;48.854;9.158;2023-05-18T23:09:31;11.00;94.40
14016;DHT22;7083;48.854;9.158;2023-05-18T23:11:58;11.00;94.30
14016;DHT22;7083;48.854;9.158;2023-05-18T23:14:25;11.00;94.80
14016;DHT22;7083;48.854;9.158;2023-05-18T23:16:56;11.00;93.90
14016;DHT22;7083;48.854;9.158;2023-05-18T23:19:25;11.00;93.70
14016;DHT22;7083;48.854;9.158;2023-05-18T23:21:51;11.00;93.80
14016;DHT22;7083;48.854;9.158;2023-05-18T23:24:18;10.90;93.60
14016;DHT22;7083;48.854;9.158;2023-05-18T23:26:47;10.90;94.00
14016;DHT22;7083;48.854;9.158;2023-05-18T23:29:13;10.80;94.00
14016;DHT22;7083;48.854;9.158;2023-05-18T23:31:40;10.80;94.10
14016;DHT22;7083;48.854;9.158;2023-05-18T23:34:07;10.70;94.60
14016;DHT22;7083;48.854;9.158;2023-05-18T23:36:37;10.70;95.00
14016;DHT22;7083;48.854;9.158;2023-05-18T23:39:07;10.60;94.90
14016;DHT22;7083;48.854;9.158;2023-05-18T23:41:35;10.60;94.40
14016;DHT22;7083;48.854;9.158;2023-05-18T23:44:02;10.50;94.40
14016;DHT22;7083;48.854;9.158;2023-05-18T23:46:30;10.50;94.20
14016;DHT22;7083;48.854;9.158;2023-05-18T23:48:57;10.40;94.20
14016;DHT22;7083;48.854;9.158;2023-05-18T23:51:24;10.30;94.60
14016;DHT22;7083;48.854;9.158;2023-05-18T23:53:55;10.20;95.00
14016;DHT22;7083;48.854;9.158;2023-05-18T23:56:23;10.10;95.30
14016;DHT22;7083;48.854;9.158;2023-05-18T23:58:50;10.00;95.70
